Time;durP1;ratioP1;P1;durP2;ratioP2;P2;SDS_P1;SDS_P2;PMS_P1;PMS_P2;Temp;Humidity;BMP_temperature;BMP_pressure;BME280_temperature;BME280_humidity;BME280_pressure;Samples;Min_cycle;Max_cycle;Signal;HPM_P1;HPM_P2
2023/06/19 00:01:52;;;;;;;;;;;;;;;19.42;69.92;100937.03;4137500;28;20021;-66
2023/06/19 00:03:54;;;;;;;;;;;;;;;19.41;69.88;100930.72;4137014;28;20024;-64
2023/06/19 00:05:57;;;;;;;;;;;;;;;19.44;70.30;100929.44;4137029;28;20387;-64
2023/06/19 00:08:00;;;;;;;;;;;;;;;19.46;70.16;100938.25;4133285;28;20028;-63
2023/06/19 00:10:04;;;;;;;;;;;;;;;19.47;70.10;100930.84;4137305;28;20013;-64
2023/06/19 00:12:06;;;;;;;;;;;;;;;19.47;69.86;100925.38;4136031;28;20593;-64
2023/06/19 00:14:08;;;;;;;;;;;;;;;19.49;69.48;100931.47;4136757;28;20052;-63
2023/06/19 00:16:11;;;;;;;;;;;;;;;19.49;69.57;100934.22;4137702;28;20045;-64
2023/06/19 00:18:13;;;;;;;;;;;;;;;19.50;69.06;100928.50;4137355;28;20017;-62
2023/06/19 00:20:15;;;;;;;;;;;;;;;19.55;68.67;100923.16;4136726;28;20436;-65
2023/06/19 00:22:18;;;;;;;;;;;;;;;19.57;68.65;100931.13;4136819;28;20016;-64
2023/06/19 00:24:20;;;;;;;;;;;;;;;19.52;69.09;100937.31;4137276;28;20016;-61
2023/06/19 00:26:23;;;;;;;;;;;;;;;19.50;68.85;100931.25;4136464;28;20345;-61
2023/06/19 00:28:25;;;;;;;;;;;;;;;19.48;69.06;100933.34;4137535;28;20031;-62
2023/06/19 00:30:31;;;;;;;;;;;;;;;19.45;69.04;100931.06;4135295;28;20438;-62
2023/06/19 00:32:45;;;;;;;;;;;;;;;19.41;69.01;100933.44;4087851;28;20025;-62
2023/06/19 00:34:47;;;;;;;;;;;;;;;19.39;69.04;100935.59;4105171;28;20013;-62
2023/06/19 00:36:50;;;;;;;;;;;;;;;19.40;69.17;100933.69;4105675;28;20468;-63
2023/06/19 00:38:53;;;;;;;;;;;;;;;19.42;69.11;100928.81;4119765;28;20365;-61
2023/06/19 00:40:55;;;;;;;;;;;;;;;19.43;69.13;100939.53;4136069;28;20406;-63
2023/06/19 00:42:57;;;;;;;;;;;;;;;19.43;68.92;100938.69;4104437;28;20707;-62
2023/06/19 00:45:00;;;;;;;;;;;;;;;19.43;68.86;100936.78;4136456;28;20021;-61
2023/06/19 00:47:02;;;;;;;;;;;;;;;19.48;69.02;100935.28;4105013;28;20029;-61
2023/06/19 00:49:04;;;;;;;;;;;;;;;19.51;69.21;100934.81;4118449;28;20624;-64
2023/06/19 00:51:06;;;;;;;;;;;;;;;19.54;69.03;100934.34;4105405;28;20109;-62
2023/06/19 00:53:08;;;;;;;;;;;;;;;19.56;69.05;100934.94;4105781;28;20013;-62
2023/06/19 00:55:11;;;;;;;;;;;;;;;19.55;69.13;100936.84;4120062;28;20020;-63
2023/06/19 00:57:13;;;;;;;;;;;;;;;19.54;69.54;100935.16;4105054;28;20017;-64
2023/06/19 00:59:16;;;;;;;;;;;;;;;19.55;69.05;100938.75;4105293;28;20013;-60
2023/06/19 01:01:19;;;;;;;;;;;;;;;19.55;68.96;100941.50;4119644;28;20414;-63
2023/06/19 01:03:21;;;;;;;;;;;;;;;19.53;68.98;100936.25;4100750;28;20379;-63
2023/06/19 01:05:25;;;;;;;;;;;;;;;19.51;68.70;100930.16;4104885;28;20028;-62
2023/06/19 01:07:31;;;;;;;;;;;;;;;19.50;68.51;100923.03;4118756;28;20024;-61
2023/06/19 01:09:35;;;;;;;;;;;;;;;19.54;68.52;100924.22;4119326;28;20420;-63
2023/06/19 01:11:38;;;;;;;;;;;;;;;19.54;68.70;100923.38;4136133;28;20016;-63
2023/06/19 01:13:41;;;;;;;;;;;;;;;19.53;68.49;100925.28;4102993;28;20029;-62
2023/06/19 01:15:43;;;;;;;;;;;;;;;19.53;68.38;100924.44;4110776;28;20012;-61
2023/06/19 01:17:45;;;;;;;;;;;;;;;19.50;68.42;100917.53;4104922;28;20017;-61
2023/06/19 01:19:47;;;;;;;;;;;;;;;19.51;68.34;100918.38;4115692;28;20390;-63
2023/06/19 01:21:50;;;;;;;;;;;;;;;19.53;67.86;100910.75;4135619;28;20414;-63
2023/06/19 01:23:53;;;;;;;;;;;;;;;19.56;67.88;100908.41;4118539;28;20036;-62
2023/06/19 01:25:55;;;;;;;;;;;;;;;19.57;67.79;100909.22;4120493;28;20075;-63
2023/06/19 01:27:57;;;;;;;;;;;;;;;19.55;68.04;100908.63;4104587;28;20025;-63
2023/06/19 01:29:59;;;;;;;;;;;;;;;19.51;68.45;100915.63;4120700;28;20384;-62
2023/06/19 01:32:04;;;;;;;;;;;;;;;19.48;68.65;100918.84;4140087;28;20475;-64
2023/06/19 01:34:07;;;;;;;;;;;;;;;19.43;68.50;100914.88;4135577;28;20013;-62
2023/06/19 01:36:09;;;;;;;;;;;;;;;19.38;68.58;100909.25;4136311;28;20355;-62
2023/06/19 01:38:11;;;;;;;;;;;;;;;19.34;68.46;100907.22;4140210;28;19929;-62
2023/06/19 01:40:15;;;;;;;;;;;;;;;19.35;68.64;100903.41;4137993;28;20431;-61
2023/06/19 01:42:17;;;;;;;;;;;;;;;19.36;68.38;100905.09;4134666;28;20029;-61
2023/06/19 01:44:19;;;;;;;;;;;;;;;19.37;68.42;100907.63;4139641;28;20444;-63
2023/06/19 01:46:21;;;;;;;;;;;;;;;19.36;68.70;100905.09;4129882;28;20026;-60
2023/06/19 01:48:25;;;;;;;;;;;;;;;19.36;68.76;100899.63;4121763;28;20149;-63
2023/06/19 01:50:27;;;;;;;;;;;;;;;19.35;68.85;100897.94;4135169;28;20389;-62
2023/06/19 01:52:29;;;;;;;;;;;;;;;19.32;69.21;100901.97;4138159;28;20020;-61
2023/06/19 01:54:31;;;;;;;;;;;;;;;19.24;69.31;100900.38;4138207;28;20025;-63
2023/06/19 01:56:35;;;;;;;;;;;;;;;19.18;69.31;100897.75;4133745;28;20049;-62
2023/06/19 01:58:37;;;;;;;;;;;;;;;19.08;69.77;100893.66;4134408;28;20028;-64
2023/06/19 02:00:39;;;;;;;;;;;;;;;19.02;70.47;100882.78;4135714;28;20025;-61
2023/06/19 02:02:41;;;;;;;;;;;;;;;19.00;70.88;100887.66;4139597;28;20021;-65
2023/06/19 02:04:43;;;;;;;;;;;;;;;18.95;71.20;100880.16;4139428;28;20561;-63
2023/06/19 02:06:45;;;;;;;;;;;;;;;18.91;71.38;100879.75;4122663;28;20524;-64
2023/06/19 02:08:47;;;;;;;;;;;;;;;18.90;71.70;100877.22;4121834;28;20403;-65
2023/06/19 02:10:49;;;;;;;;;;;;;;;18.93;71.55;100876.78;4139128;28;20236;-66
2023/06/19 02:12:52;;;;;;;;;;;;;;;18.94;71.60;100874.91;4133990;28;20012;-62
2023/06/19 02:14:54;;;;;;;;;;;;;;;18.93;71.81;100874.03;4134170;28;20020;-63
2023/06/19 02:16:56;;;;;;;;;;;;;;;18.96;71.94;100872.75;4122599;28;20032;-63
2023/06/19 02:19:00;;;;;;;;;;;;;;;18.93;71.84;100871.31;4121321;28;20021;-64
2023/06/19 02:21:02;;;;;;;;;;;;;;;18.95;72.12;100869.19;4137682;28;20412;-64
2023/06/19 02:23:04;;;;;;;;;;;;;;;18.93;72.30;100870.47;4134378;28;20025;-64
2023/06/19 02:25:06;;;;;;;;;;;;;;;18.89;72.28;100875.59;4136917;28;20021;-64
2023/06/19 02:27:08;;;;;;;;;;;;;;;18.89;72.17;100875.59;4139323;28;20535;-62
2023/06/19 02:29:11;;;;;;;;;;;;;;;18.87;71.99;100872.22;4139003;28;20359;-63
2023/06/19 02:31:13;;;;;;;;;;;;;;;18.84;72.63;100862.59;4121080;28;19930;-60
2023/06/19 02:33:15;;;;;;;;;;;;;;;18.79;73.06;100867.03;4137510;28;20025;-61
2023/06/19 02:35:17;;;;;;;;;;;;;;;18.73;72.96;100866.88;4139248;28;20016;-62
2023/06/19 02:37:20;;;;;;;;;;;;;;;18.70;73.35;100864.59;4138764;28;20061;-59
2023/06/19 02:39:22;;;;;;;;;;;;;;;18.69;73.34;100862.94;4136375;28;20016;-62
2023/06/19 02:41:25;;;;;;;;;;;;;;;18.68;73.64;100864.00;4138130;28;20020;-63
2023/06/19 02:43:26;;;;;;;;;;;;;;;18.71;73.14;100857.22;4121641;28;20020;-65
2023/06/19 02:45:30;;;;;;;;;;;;;;;18.73;72.84;100855.94;4137765;28;20004;-63
2023/06/19 02:47:32;;;;;;;;;;;;;;;18.72;72.98;100862.47;4133881;28;20032;-61
2023/06/19 02:49:34;;;;;;;;;;;;;;;18.72;72.69;100859.72;4134824;28;20055;-66
2023/06/19 02:51:36;;;;;;;;;;;;;;;18.73;72.33;100860.59;4137517;28;19930;-64
2023/06/19 02:53:38;;;;;;;;;;;;;;;18.75;72.50;100861.19;4136615;28;20029;-64
2023/06/19 02:55:43;;;;;;;;;;;;;;;18.75;72.04;100854.88;4137570;28;20044;-64
2023/06/19 02:57:46;;;;;;;;;;;;;;;18.77;71.65;100853.56;4138293;28;20008;-65
2023/06/19 02:59:48;;;;;;;;;;;;;;;18.76;71.74;100864.75;4138664;28;20348;-63
2023/06/19 03:01:52;;;;;;;;;;;;;;;18.77;71.79;100856.31;4138472;28;20372;-60
2023/06/19 03:03:54;;;;;;;;;;;;;;;18.79;71.58;100856.91;4130171;28;20032;-64
2023/06/19 03:05:56;;;;;;;;;;;;;;;18.80;71.66;100861.31;4137157;28;20450;-65
2023/06/19 03:07:58;;;;;;;;;;;;;;;18.80;71.57;100853.13;4135741;28;20452;-63
2023/06/19 03:10:01;;;;;;;;;;;;;;;18.80;71.66;100858.59;4138428;28;20020;-65
2023/06/19 03:12:04;;;;;;;;;;;;;;;18.80;71.59;100863.25;4136879;28;20483;-60
2023/06/19 03:14:07;;;;;;;;;;;;;;;18.79;71.46;100864.28;4136141;28;20037;-62
2023/06/19 03:16:10;;;;;;;;;;;;;;;18.77;71.31;100861.78;4121115;28;20431;-63
2023/06/19 03:18:14;;;;;;;;;;;;;;;18.81;71.18;100860.28;4138947;28;20022;-64
2023/06/19 03:20:16;;;;;;;;;;;;;;;18.83;70.98;100860.88;4119956;28;20395;-63
2023/06/19 03:22:25;;;;;;;;;;;;;;;18.87;70.93;100861.28;4135676;28;20443;-65
2023/06/19 03:24:28;;;;;;;;;;;;;;;18.85;70.91;100866.97;4135605;28;20016;-61
2023/06/19 03:26:40;;;;;;;;;;;;;;;18.82;70.72;100867.41;4137707;28;20020;-62
2023/06/19 03:28:42;;;;;;;;;;;;;;;18.84;70.80;100875.38;4137986;28;20020;-61
2023/06/19 03:30:45;;;;;;;;;;;;;;;18.84;70.77;100867.16;4118970;28;20042;-64
2023/06/19 03:32:50;;;;;;;;;;;;;;;18.84;70.61;100868.06;4105014;28;19927;-64
2023/06/19 03:35:11;;;;;;;;;;;;;;;18.88;70.79;100866.53;4136542;28;20048;-65
2023/06/19 03:37:18;;;;;;;;;;;;;;;18.88;70.60;100871.16;4105274;28;20017;-64
2023/06/19 03:39:20;;;;;;;;;;;;;;;18.92;70.63;100872.38;4104762;28;20025;-63
2023/06/19 03:41:23;;;;;;;;;;;;;;;18.90;70.63;100875.34;4115216;28;20427;-63
2023/06/19 03:43:25;;;;;;;;;;;;;;;18.88;70.38;100871.16;4137217;28;20032;-63
2023/06/19 03:45:27;;;;;;;;;;;;;;;18.82;70.46;100878.34;4120188;28;20029;-63
2023/06/19 03:47:29;;;;;;;;;;;;;;;18.84;70.72;100879.00;4105072;28;20049;-63
2023/06/19 03:49:31;;;;;;;;;;;;;;;18.89;70.84;100887.34;4135168;28;20021;-63
2023/06/19 03:51:34;;;;;;;;;;;;;;;18.95;70.85;100880.16;4104706;28;20017;-62
2023/06/19 03:53:37;;;;;;;;;;;;;;;18.98;70.84;100887.03;4118062;28;20388;-62
2023/06/19 03:55:39;;;;;;;;;;;;;;;18.98;70.13;100887.03;4119766;28;20391;-64
2023/06/19 03:57:41;;;;;;;;;;;;;;;19.00;70.14;100891.22;4100563;28;20481;-64
2023/06/19 03:59:43;;;;;;;;;;;;;;;18.98;70.16;100887.91;4101937;28;20022;-63
2023/06/19 04:01:46;;;;;;;;;;;;;;;18.96;70.10;100891.91;4120119;28;20020;-63
2023/06/19 04:03:48;;;;;;;;;;;;;;;18.94;70.22;100883.94;4104795;28;20013;-63
2023/06/19 04:05:50;;;;;;;;;;;;;;;18.95;70.10;100884.75;4115988;28;20025;-62
2023/06/19 04:07:53;;;;;;;;;;;;;;;18.97;69.91;100882.66;4103507;28;20345;-64
2023/06/19 04:09:55;;;;;;;;;;;;;;;19.00;69.56;100887.66;4104803;28;20468;-61
2023/06/19 04:11:57;;;;;;;;;;;;;;;19.05;69.64;100871.38;4120101;28;20020;-64
2023/06/19 04:14:00;;;;;;;;;;;;;;;19.09;69.54;100867.13;4135086;28;19953;-63
2023/06/19 04:16:02;;;;;;;;;;;;;;;19.13;69.21;100856.53;4101749;28;20544;-61
2023/06/19 04:18:04;;;;;;;;;;;;;;;19.15;69.07;100851.66;4135783;28;20487;-64
2023/06/19 04:20:10;;;;;;;;;;;;;;;19.18;68.45;100843.00;4135993;28;20009;-63
2023/06/19 04:22:13;;;;;;;;;;;;;;;19.19;67.85;100852.88;4104968;28;20021;-64
2023/06/19 04:24:16;;;;;;;;;;;;;;;19.21;67.99;100858.94;4103864;28;20032;-61
2023/06/19 04:26:18;;;;;;;;;;;;;;;19.21;67.83;100853.47;4119206;28;20029;-64
2023/06/19 04:28:20;;;;;;;;;;;;;;;19.24;67.68;100853.84;4130004;28;20926;-61
2023/06/19 04:30:22;;;;;;;;;;;;;;;19.26;67.97;100843.50;4105973;28;20065;-61
2023/06/19 04:32:24;;;;;;;;;;;;;;;19.29;68.14;100852.31;4135305;28;20024;-63
2023/06/19 04:34:26;;;;;;;;;;;;;;;19.30;67.98;100851.25;4136211;28;20407;-62
2023/06/19 04:36:31;;;;;;;;;;;;;;;19.32;68.17;100857.34;4131923;28;20449;-60
2023/06/19 04:38:33;;;;;;;;;;;;;;;19.34;68.12;100860.66;4137015;28;20028;-59
2023/06/19 04:40:36;;;;;;;;;;;;;;;19.36;68.26;100864.84;4134857;28;20052;-61
2023/06/19 04:42:39;;;;;;;;;;;;;;;19.38;68.31;100870.09;4137040;28;20039;-65
2023/06/19 04:44:41;;;;;;;;;;;;;;;19.39;68.61;100878.09;4137155;28;20016;-65
2023/06/19 04:46:43;;;;;;;;;;;;;;;19.40;68.75;100884.38;4136533;28;20020;-65
2023/06/19 04:48:50;;;;;;;;;;;;;;;19.39;68.59;100889.03;4137328;28;20479;-66
2023/06/19 04:50:52;;;;;;;;;;;;;;;19.39;68.54;100883.56;4136322;28;20012;-65
2023/06/19 04:52:54;;;;;;;;;;;;;;;19.39;68.74;100889.03;4136545;28;20024;-66
2023/06/19 04:54:56;;;;;;;;;;;;;;;19.41;68.50;100881.41;4134731;28;20416;-62
2023/06/19 04:57:00;;;;;;;;;;;;;;;19.43;68.48;100886.66;4137180;28;20012;-63
2023/06/19 04:59:02;;;;;;;;;;;;;;;19.44;68.32;100886.44;4117945;28;20021;-64
2023/06/19 05:01:04;;;;;;;;;;;;;;;19.46;68.15;100888.94;4136060;28;20021;-64
2023/06/19 05:03:06;;;;;;;;;;;;;;;19.48;68.07;100885.97;4136914;28;20361;-64
2023/06/19 05:05:08;;;;;;;;;;;;;;;19.50;68.02;100889.28;4141063;28;20016;-65
2023/06/19 05:07:12;;;;;;;;;;;;;;;19.51;68.15;100896.47;4139951;28;20012;-64
2023/06/19 05:09:14;;;;;;;;;;;;;;;19.53;68.38;100894.31;4139348;28;20012;-64
2023/06/19 05:11:16;;;;;;;;;;;;;;;19.54;68.41;100891.34;4141032;28;20013;-65
2023/06/19 05:13:19;;;;;;;;;;;;;;;19.57;68.49;100896.34;4140683;28;20027;-63
2023/06/19 05:15:21;;;;;;;;;;;;;;;19.58;68.64;100897.22;4138802;28;20477;-64
2023/06/19 05:17:23;;;;;;;;;;;;;;;19.60;68.61;100900.53;4137956;28;20012;-64
2023/06/19 05:19:25;;;;;;;;;;;;;;;19.61;68.82;100903.03;4130508;28;20044;-67
2023/06/19 05:21:27;;;;;;;;;;;;;;;19.63;68.76;100902.81;4128666;28;19940;-64
2023/06/19 05:23:29;;;;;;;;;;;;;;;19.64;68.75;100896.28;4132454;28;19934;-66
2023/06/19 05:25:31;;;;;;;;;;;;;;;19.65;68.67;100908.06;4131011;28;19933;-66
2023/06/19 05:27:33;;;;;;;;;;;;;;;19.65;68.73;100903.41;4134464;28;19933;-64
2023/06/19 05:29:37;;;;;;;;;;;;;;;19.63;68.61;100911.03;4125677;28;19940;-65
2023/06/19 05:31:39;;;;;;;;;;;;;;;19.66;68.72;100907.00;4129022;28;19933;-67
2023/06/19 05:33:41;;;;;;;;;;;;;;;19.68;68.95;100902.94;4135408;28;19963;-64
2023/06/19 05:35:51;;;;;;;;;;;;;;;19.69;68.82;100909.28;4132803;28;19964;-65
2023/06/19 05:37:53;;;;;;;;;;;;;;;19.70;68.84;100903.56;4135796;28;19926;-65
2023/06/19 05:39:55;;;;;;;;;;;;;;;19.71;69.04;100910.69;4137977;28;20013;-64
2023/06/19 05:41:57;;;;;;;;;;;;;;;19.71;69.08;100909.88;4140096;28;20012;-63
2023/06/19 05:43:59;;;;;;;;;;;;;;;19.72;68.80;100898.69;4139682;28;20017;-67
2023/06/19 05:46:03;;;;;;;;;;;;;;;19.75;68.37;100905.59;4140179;28;20020;-66
2023/06/19 05:48:05;;;;;;;;;;;;;;;19.76;68.20;100913.59;4139509;28;20622;-64
2023/06/19 05:50:07;;;;;;;;;;;;;;;19.78;68.02;100911.47;4139733;28;20012;-65
2023/06/19 05:52:09;;;;;;;;;;;;;;;19.80;68.18;100914.81;4140135;28;20017;-65
2023/06/19 05:54:12;;;;;;;;;;;;;;;19.80;67.88;100913.97;4136287;28;20480;-65
2023/06/19 05:56:13;;;;;;;;;;;;;;;19.82;68.00;100911.84;4139842;28;20360;-66
2023/06/19 05:58:19;;;;;;;;;;;;;;;19.83;68.06;100907.19;4137744;28;20095;-66
2023/06/19 06:00:22;;;;;;;;;;;;;;;19.83;67.82;100904.44;4138866;28;20021;-64
2023/06/19 06:02:28;;;;;;;;;;;;;;;19.84;67.83;100906.13;4138485;28;20014;-65
2023/06/19 06:04:31;;;;;;;;;;;;;;;19.84;67.85;100903.38;4139199;28;20358;-65
2023/06/19 06:06:32;;;;;;;;;;;;;;;19.85;67.96;100905.88;4137299;28;20013;-65
2023/06/19 06:08:35;;;;;;;;;;;;;;;19.86;67.92;100898.47;4136758;28;20016;-65
2023/06/19 06:10:37;;;;;;;;;;;;;;;19.84;67.67;100903.38;4133212;28;20016;-65
2023/06/19 06:12:39;;;;;;;;;;;;;;;19.84;67.99;100890.50;4133151;28;20013;-64
2023/06/19 06:14:41;;;;;;;;;;;;;;;19.86;68.27;100898.47;4136345;28;20028;-65
2023/06/19 06:16:43;;;;;;;;;;;;;;;19.87;68.20;100895.50;4138278;28;19933;-64
2023/06/19 06:18:47;;;;;;;;;;;;;;;19.88;68.03;100901.84;4136105;28;20559;-63
2023/06/19 06:20:49;;;;;;;;;;;;;;;19.88;68.03;100899.09;4135103;28;21187;-64
2023/06/19 06:22:51;;;;;;;;;;;;;;;19.88;67.73;100894.44;4137359;28;20021;-64
2023/06/19 06:24:54;;;;;;;;;;;;;;;19.89;67.89;100900.75;4137918;28;20020;-64
2023/06/19 06:26:56;;;;;;;;;;;;;;;19.89;67.88;100893.38;4139625;28;20027;-64
2023/06/19 06:28:58;;;;;;;;;;;;;;;19.90;67.72;100900.53;4138824;28;20355;-61
2023/06/19 06:31:00;;;;;;;;;;;;;;;19.89;68.11;100900.75;4137035;28;20012;-62
2023/06/19 06:33:02;;;;;;;;;;;;;;;19.90;68.12;100902.44;4139208;28;20381;-61
2023/06/19 06:35:06;;;;;;;;;;;;;;;19.90;67.93;100897.78;4137766;28;20009;-61
2023/06/19 06:37:08;;;;;;;;;;;;;;;19.93;68.06;100907.44;4137302;28;20123;-65
2023/06/19 06:39:10;;;;;;;;;;;;;;;19.95;68.15;100913.53;4134412;28;20008;-62
2023/06/19 06:41:12;;;;;;;;;;;;;;;19.96;67.80;100921.50;4135941;28;20012;-64
2023/06/19 06:43:14;;;;;;;;;;;;;;;19.98;67.76;100918.53;4136621;28;20037;-64
2023/06/19 06:45:16;;;;;;;;;;;;;;;20.00;67.46;100916.41;4138121;28;20032;-63
2023/06/19 06:47:18;;;;;;;;;;;;;;;20.02;67.58;100914.25;4135742;28;20013;-65
2023/06/19 06:49:22;;;;;;;;;;;;;;;20.04;67.69;100923.06;4137708;28;20013;-64
2023/06/19 06:51:25;;;;;;;;;;;;;;;20.07;67.72;100919.03;4138344;28;20012;-64
2023/06/19 06:53:27;;;;;;;;;;;;;;;20.09;67.61;100922.38;4138112;28;20024;-64
2023/06/19 06:55:29;;;;;;;;;;;;;;;20.10;66.98;100916.66;4136424;28;19969;-64
2023/06/19 06:57:32;;;;;;;;;;;;;;;20.13;66.71;100926.31;4139207;28;19969;-62
2023/06/19 06:59:34;;;;;;;;;;;;;;;20.14;66.90;100920.59;4134546;28;20024;-63
2023/06/19 07:01:36;;;;;;;;;;;;;;;20.16;67.19;100920.38;4136808;28;20017;-63
2023/06/19 07:03:39;;;;;;;;;;;;;;;20.17;67.00;100913.78;4138393;28;20020;-61
2023/06/19 07:05:41;;;;;;;;;;;;;;;20.18;66.98;100923.69;4132842;28;20017;-62
2023/06/19 07:07:44;;;;;;;;;;;;;;;20.19;66.88;100919.91;4135075;28;20332;-63
2023/06/19 07:09:46;;;;;;;;;;;;;;;20.23;66.53;100928.47;4136083;28;20028;-65
2023/06/19 07:11:49;;;;;;;;;;;;;;;20.24;66.39;100928.25;4138705;28;20033;-64
2023/06/19 07:13:51;;;;;;;;;;;;;;;20.27;66.51;100927.75;4138362;28;20027;-64
2023/06/19 07:15:53;;;;;;;;;;;;;;;20.30;66.30;100931.94;4120925;28;20032;-62
2023/06/19 07:17:55;;;;;;;;;;;;;;;20.30;66.39;100926.47;4138240;28;20246;-64
2023/06/19 07:19:57;;;;;;;;;;;;;;;20.33;66.53;100920.50;4137955;28;20024;-66
2023/06/19 07:21:59;;;;;;;;;;;;;;;20.34;66.39;100917.53;4138204;28;20033;-62
2023/06/19 07:24:02;;;;;;;;;;;;;;;20.38;66.45;100919.78;4138056;28;20026;-62
2023/06/19 07:26:04;;;;;;;;;;;;;;;20.40;66.21;100923.94;4135649;28;20389;-64
2023/06/19 07:28:06;;;;;;;;;;;;;;;20.41;65.96;100917.41;4138153;28;20012;-63
2023/06/19 07:30:08;;;;;;;;;;;;;;;20.44;66.21;100918.81;4137259;28;20019;-64
2023/06/19 07:32:11;;;;;;;;;;;;;;;20.44;65.93;100916.94;4138205;28;20025;-64
2023/06/19 07:34:14;;;;;;;;;;;;;;;20.46;66.07;100923.00;4135839;28;20021;-64
2023/06/19 07:36:16;;;;;;;;;;;;;;;20.49;66.34;100925.25;4137582;28;20016;-62
2023/06/19 07:38:18;;;;;;;;;;;;;;;20.53;66.35;100925.63;4137620;28;20402;-64
2023/06/19 07:40:21;;;;;;;;;;;;;;;20.56;65.87;100924.31;4132744;28;20025;-63
2023/06/19 07:42:23;;;;;;;;;;;;;;;20.59;65.48;100923.84;4136243;28;20008;-63
2023/06/19 07:44:27;;;;;;;;;;;;;;;20.60;65.47;100923.59;4137293;28;20017;-63
2023/06/19 07:46:29;;;;;;;;;;;;;;;20.62;65.39;100920.63;4137786;28;20020;-61
2023/06/19 07:48:31;;;;;;;;;;;;;;;20.63;65.26;100931.34;4136899;28;20040;-63
2023/06/19 07:50:33;;;;;;;;;;;;;;;20.66;65.31;100927.34;4135830;28;20015;-65
2023/06/19 07:52:35;;;;;;;;;;;;;;;20.67;65.37;100923.50;4138059;28;20012;-64
2023/06/19 07:54:37;;;;;;;;;;;;;;;20.69;65.14;100927.69;4135464;28;20037;-64
2023/06/19 07:56:43;;;;;;;;;;;;;;;20.72;64.62;100931.88;4137028;28;20024;-64
2023/06/19 07:58:46;;;;;;;;;;;;;;;20.77;64.85;100933.84;4137518;28;19929;-65
2023/06/19 08:00:49;;;;;;;;;;;;;;;20.78;64.73;100924.56;4136881;28;20293;-63
2023/06/19 08:02:51;;;;;;;;;;;;;;;20.81;64.70;100924.91;4137090;28;20012;-64
2023/06/19 08:04:52;;;;;;;;;;;;;;;20.81;64.48;100916.69;4134765;28;20006;-63
2023/06/19 08:06:55;;;;;;;;;;;;;;;20.84;64.35;100920.84;4137538;28;20016;-62
2023/06/19 08:08:57;;;;;;;;;;;;;;;20.87;64.26;100925.88;4137005;28;20033;-64
2023/06/19 08:11:01;;;;;;;;;;;;;;;20.89;64.17;100923.72;4126977;28;20012;-64
2023/06/19 08:13:04;;;;;;;;;;;;;;;20.91;63.75;100926.22;4137822;28;20025;-61
2023/06/19 08:15:07;;;;;;;;;;;;;;;20.92;63.56;100922.41;4136092;28;20013;-63
2023/06/19 08:17:09;;;;;;;;;;;;;;;20.94;63.37;100926.59;4137024;28;20500;-64
2023/06/19 08:19:11;;;;;;;;;;;;;;;20.98;63.28;100926.94;4136857;28;19930;-65
2023/06/19 08:21:13;;;;;;;;;;;;;;;20.99;63.58;100925.84;4136989;28;20479;-64
2023/06/19 08:23:15;;;;;;;;;;;;;;;21.00;63.36;100928.38;4131907;28;19925;-65
2023/06/19 08:25:18;;;;;;;;;;;;;;;21.03;63.18;100919.63;4137823;28;20056;-64
2023/06/19 08:27:20;;;;;;;;;;;;;;;21.04;63.02;100925.97;4133939;28;20076;-65
2023/06/19 08:29:23;;;;;;;;;;;;;;;21.07;62.95;100930.97;4137105;28;20008;-65
2023/06/19 08:31:27;;;;;;;;;;;;;;;21.09;62.89;100927.97;4136952;28;20020;-64
2023/06/19 08:33:29;;;;;;;;;;;;;;;21.12;63.01;100924.75;4137629;28;20448;-61
2023/06/19 08:35:31;;;;;;;;;;;;;;;21.13;62.78;100923.66;4137211;28;20020;-63
2023/06/19 08:37:33;;;;;;;;;;;;;;;21.14;62.62;100928.06;4137412;28;20020;-64
2023/06/19 08:39:37;;;;;;;;;;;;;;;21.13;62.56;100921.75;4133546;28;19929;-62
2023/06/19 08:41:41;;;;;;;;;;;;;;;21.14;62.54;100926.16;4135953;28;20024;-62
2023/06/19 08:43:43;;;;;;;;;;;;;;;21.15;62.22;100916.03;4140879;28;20029;-64
2023/06/19 08:45:46;;;;;;;;;;;;;;;21.15;62.44;100916.84;4139937;28;20012;-63
2023/06/19 08:47:48;;;;;;;;;;;;;;;21.18;62.39;100921.03;4134268;28;20024;-62
2023/06/19 08:49:50;;;;;;;;;;;;;;;21.19;62.20;100917.19;4136644;28;20016;-64
2023/06/19 08:51:53;;;;;;;;;;;;;;;21.18;62.07;100916.34;4138955;28;20029;-64
2023/06/19 08:53:56;;;;;;;;;;;;;;;21.21;62.17;100917.81;4122882;28;20008;-64
2023/06/19 08:55:58;;;;;;;;;;;;;;;21.22;62.03;100916.69;4140416;28;20028;-65
2023/06/19 08:58:00;;;;;;;;;;;;;;;21.23;62.07;100915.63;4140511;28;20024;-61
2023/06/19 09:00:06;;;;;;;;;;;;;;;21.25;62.08;100913.47;4138195;28;19933;-62
2023/06/19 09:02:09;;;;;;;;;;;;;;;21.27;62.04;100911.34;4140993;28;20032;-64
2023/06/19 09:04:11;;;;;;;;;;;;;;;21.30;61.91;100918.22;4140010;28;20016;-62
2023/06/19 09:06:15;;;;;;;;;;;;;;;21.32;61.74;100914.16;4140006;28;20024;-64
2023/06/19 09:08:17;;;;;;;;;;;;;;;21.33;61.76;100920.50;4140071;28;20383;-63
2023/06/19 09:10:20;;;;;;;;;;;;;;;21.35;61.72;100912.84;4138155;28;20024;-64
2023/06/19 09:12:23;;;;;;;;;;;;;;;21.38;61.56;100926.09;4122673;28;20021;-61
2023/06/19 09:14:33;;;;;;;;;;;;;;;21.39;61.55;100927.75;4137213;28;20031;-64
2023/06/19 09:16:39;;;;;;;;;;;;;;;21.43;61.52;100928.94;4138858;28;20029;-65
2023/06/19 09:18:46;;;;;;;;;;;;;;;21.42;61.33;100922.59;4140268;28;20027;-62
2023/06/19 09:20:53;;;;;;;;;;;;;;;21.44;61.21;100925.09;4138931;28;20475;-63
2023/06/19 09:22:55;;;;;;;;;;;;;;;21.40;61.34;100915.69;4122326;28;20041;-60
2023/06/19 09:25:00;;;;;;;;;;;;;;;21.48;61.40;100931.78;4139447;28;20020;-64
2023/06/19 09:27:11;;;;;;;;;;;;;;;21.49;61.37;100922.50;4135340;28;20370;-62
2023/06/19 09:29:13;;;;;;;;;;;;;;;21.52;61.34;100924.75;4139785;28;20052;-60
2023/06/19 09:31:15;;;;;;;;;;;;;;;21.52;61.32;100921.16;4140001;28;20060;-64
2023/06/19 09:33:18;;;;;;;;;;;;;;;21.53;61.23;100922.84;4132004;28;20084;-61
2023/06/19 09:35:22;;;;;;;;;;;;;;;21.53;61.30;100917.34;4135657;28;20012;-63
2023/06/19 09:37:25;;;;;;;;;;;;;;;21.54;61.04;100922.59;4137533;28;20394;-63
2023/06/19 09:39:27;;;;;;;;;;;;;;;21.53;60.92;100920.09;4138361;28;20000;-62
2023/06/19 09:41:29;;;;;;;;;;;;;;;21.55;61.04;100926.16;4139689;28;20443;-64
2023/06/19 09:43:38;;;;;;;;;;;;;;;21.56;60.88;100928.66;4139727;28;20049;-62
2023/06/19 09:45:40;;;;;;;;;;;;;;;21.58;60.89;100932.03;4139318;28;20020;-65
2023/06/19 09:47:44;;;;;;;;;;;;;;;21.58;60.85;100931.16;4133801;28;20368;-66
2023/06/19 09:49:48;;;;;;;;;;;;;;;21.62;60.83;100935.09;4121298;28;19972;-64
2023/06/19 09:51:52;;;;;;;;;;;;;;;21.63;60.93;100938.69;4137431;28;20028;-62
2023/06/19 09:53:54;;;;;;;;;;;;;;;21.65;60.92;100936.53;4139146;28;20000;-67
2023/06/19 09:55:57;;;;;;;;;;;;;;;21.67;61.27;100935.19;4139668;28;20032;-61
2023/06/19 09:57:59;;;;;;;;;;;;;;;21.70;60.70;100942.13;4140170;28;20027;-65
2023/06/19 10:00:09;;;;;;;;;;;;;;;21.72;60.70;100945.44;4139151;28;20049;-64
2023/06/19 10:02:15;;;;;;;;;;;;;;;21.73;60.57;100944.38;4139389;28;20040;-66
2023/06/19 10:04:17;;;;;;;;;;;;;;;21.75;60.77;100942.22;4138720;28;20041;-64
2023/06/19 10:06:20;;;;;;;;;;;;;;;21.76;60.52;100935.63;4139555;28;20020;-63
2023/06/19 10:08:29;;;;;;;;;;;;;;;21.78;60.43;100925.22;4138932;28;20027;-64
2023/06/19 10:10:31;;;;;;;;;;;;;;;21.81;60.59;100912.91;4133815;28;20060;-64
2023/06/19 10:12:40;;;;;;;;;;;;;;;21.80;60.73;100914.81;4139270;28;20032;-63
2023/06/19 10:14:46;;;;;;;;;;;;;;;21.84;60.55;100907.75;4137606;28;20368;-64
2023/06/19 10:16:48;;;;;;;;;;;;;;;21.85;60.84;100906.66;4139035;28;20009;-62
2023/06/19 10:18:50;;;;;;;;;;;;;;;21.85;60.68;100894.81;4138736;28;20036;-64
2023/06/19 10:20:52;;;;;;;;;;;;;;;21.86;60.69;100897.31;4136627;28;20048;-64
2023/06/19 10:22:57;;;;;;;;;;;;;;;21.86;60.57;100896.50;4138895;28;19932;-64
2023/06/19 10:25:01;;;;;;;;;;;;;;;21.89;60.47;100893.25;4138514;28;20361;-64
2023/06/19 10:27:03;;;;;;;;;;;;;;;21.87;60.46;100885.25;4134637;28;20401;-64
2023/06/19 10:29:14;;;;;;;;;;;;;;;21.90;60.50;100887.50;4138894;28;20424;-63
2023/06/19 10:31:18;;;;;;;;;;;;;;;21.89;60.38;100883.06;4137090;28;20004;-63